Time;durP1;ratioP1;P1;durP2;ratioP2;P2;SDS_P1;SDS_P2;PMS_P1;PMS_P2;Temp;Humidity;BMP_temperature;BMP_pressure;BME280_temperature;BME280_humidity;BME280_pressure;Samples;Min_cycle;Max_cycle;Signal;HPM_P1;HPM_P2
2021/12/28 00:00:10;;;;;;;36.80;25.00;;;-4.80;99.90;;;;;;7409137;19;20332;-80
2021/12/28 00:02:38;;;;;;;38.05;23.90;;;-4.80;99.90;;;;;;7417872;19;20340;-80
2021/12/28 00:05:04;;;;;;;36.58;23.00;;;-4.90;99.90;;;;;;7415498;19;20364;-81
2021/12/28 00:07:30;;;;;;;32.13;20.15;;;-4.90;99.90;;;;;;7416861;19;20329;-80
2021/12/28 00:09:57;;;;;;;28.88;22.15;;;-4.90;99.90;;;;;;7397127;19;20351;-81
2021/12/28 00:12:23;;;;;;;36.88;26.00;;;-4.80;99.90;;;;;;7416205;19;20344;-81
2021/12/28 00:15:02;;;;;;;31.30;22.52;;;-4.90;99.90;;;;;;7413213;19;20370;-80
2021/12/28 00:20:13;;;;;;;34.55;21.40;;;-4.90;99.90;;;;;;7414240;19;20316;-80
2021/12/28 00:22:38;;;;;;;36.03;24.70;;;-4.90;99.90;;;;;;7420373;19;20328;-81
2021/12/28 00:25:05;;;;;;;34.90;22.90;;;-4.90;99.90;;;;;;7413140;19;20328;-80
2021/12/28 00:27:31;;;;;;;42.93;25.47;;;-4.70;99.90;;;;;;7410991;19;20332;-81
2021/12/28 00:29:57;;;;;;;37.10;23.27;;;-4.90;99.90;;;;;;7410971;19;20341;-80
2021/12/28 00:32:23;;;;;;;31.60;22.48;;;-4.80;99.90;;;;;;7412448;19;20301;-80
2021/12/28 00:34:48;;;;;;;36.17;23.57;;;-4.90;99.90;;;;;;7406363;19;20352;-83
2021/12/28 00:37:14;;;;;;;34.90;23.20;;;-4.90;99.90;;;;;;7413069;19;20372;-82
2021/12/28 00:39:40;;;;;;;35.72;24.50;;;-4.90;99.90;;;;;;7411422;19;20356;-83
2021/12/28 00:42:07;;;;;;;37.20;24.00;;;-4.90;99.90;;;;;;7418995;19;20385;-84
2021/12/28 00:44:33;;;;;;;41.30;24.83;;;-4.90;99.90;;;;;;7418018;19;20380;-81
2021/12/28 00:47:02;;;;;;;30.33;22.10;;;-4.90;99.90;;;;;;7416993;19;20898;-80
2021/12/28 00:49:30;;;;;;;28.73;20.83;;;-4.90;99.90;;;;;;7416537;19;20353;-81
2021/12/28 00:51:55;;;;;;;35.00;23.10;;;-5.00;99.90;;;;;;7417819;19;20412;-82
2021/12/28 00:54:22;;;;;;;38.38;24.83;;;-5.00;99.90;;;;;;7409759;19;20352;-82
2021/12/28 00:56:48;;;;;;;36.20;26.47;;;-4.90;99.90;;;;;;7412402;19;20344;-83
2021/12/28 00:59:14;;;;;;;38.70;23.37;;;-4.90;99.90;;;;;;7415680;19;20315;-83
2021/12/28 01:01:39;;;;;;;41.23;24.57;;;-5.00;99.90;;;;;;7414839;19;20345;-84
2021/12/28 01:04:05;;;;;;;39.08;23.40;;;-4.90;99.90;;;;;;7411553;19;20369;-80
2021/12/28 01:06:31;;;;;;;35.10;25.00;;;-5.00;99.90;;;;;;7416205;19;20329;-79
2021/12/28 01:08:57;;;;;;;39.67;24.73;;;-5.00;99.90;;;;;;7414984;19;20396;-81
2021/12/28 01:11:23;;;;;;;37.03;24.00;;;-5.10;99.90;;;;;;7411822;19;20323;-81
2021/12/28 01:13:48;;;;;;;33.03;23.50;;;-5.00;99.90;;;;;;7409478;19;20686;-82
2021/12/28 01:16:14;;;;;;;40.50;24.60;;;-5.10;99.90;;;;;;7415004;19;20320;-83
2021/12/28 01:18:41;;;;;;;31.90;23.48;;;-5.10;99.90;;;;;;7414052;19;20313;-83
2021/12/28 01:21:07;;;;;;;38.20;24.60;;;-5.10;99.90;;;;;;7420321;19;20341;-83
2021/12/28 01:23:33;;;;;;;34.42;24.05;;;-5.00;99.90;;;;;;7412790;19;20362;-81
2021/12/28 01:25:59;;;;;;;30.63;22.17;;;-5.10;99.90;;;;;;7413642;19;20333;-80
2021/12/28 01:28:25;;;;;;;42.95;24.80;;;-5.10;99.90;;;;;;7416780;19;20365;-81
2021/12/28 01:30:51;;;;;;;35.77;25.30;;;-5.10;99.90;;;;;;7411634;19;20317;-80
2021/12/28 01:33:17;;;;;;;40.78;25.23;;;-5.10;99.90;;;;;;7407386;19;20309;-83
2021/12/28 01:35:43;;;;;;;37.70;22.58;;;-5.10;99.90;;;;;;7399128;19;20312;-83
2021/12/28 01:38:10;;;;;;;31.45;22.55;;;-5.10;99.90;;;;;;7419425;19;20340;-83
2021/12/28 01:40:38;;;;;;;33.58;22.52;;;-5.10;99.90;;;;;;7393393;19;20437;-84
2021/12/28 01:43:12;;;;;;;32.35;23.23;;;-5.10;99.90;;;;;;7415867;19;20349;-83
2021/12/28 01:45:50;;;;;;;26.50;21.63;;;-5.10;99.90;;;;;;7418279;19;20357;-84
2021/12/28 01:48:22;;;;;;;33.47;24.58;;;-5.10;99.90;;;;;;7416007;19;20296;-79
2021/12/28 01:50:48;;;;;;;28.25;20.92;;;-5.10;99.90;;;;;;7410233;19;20331;-83
2021/12/28 01:53:14;;;;;;;34.38;24.17;;;-5.10;99.90;;;;;;7413337;19;20305;-83
2021/12/28 01:55:41;;;;;;;32.67;24.67;;;-5.20;99.90;;;;;;7417875;19;20344;-83
2021/12/28 01:58:07;;;;;;;39.33;24.05;;;-5.20;99.90;;;;;;7420094;19;20336;-84
2021/12/28 02:00:32;;;;;;;33.90;23.55;;;-5.20;99.90;;;;;;7386693;19;20461;-83
2021/12/28 02:02:59;;;;;;;37.97;24.98;;;-5.20;99.90;;;;;;7416915;19;20364;-84
2021/12/28 02:05:25;;;;;;;41.50;25.30;;;-5.20;99.90;;;;;;7416693;19;20409;-82
2021/12/28 02:07:51;;;;;;;34.22;22.30;;;-5.20;99.90;;;;;;7417716;19;21032;-82
2021/12/28 02:10:17;;;;;;;34.15;23.15;;;-5.30;99.90;;;;;;7413978;19;20337;-82
2021/12/28 02:12:44;;;;;;;37.67;22.77;;;-5.20;99.90;;;;;;7417735;19;20328;-84
2021/12/28 02:15:13;;;;;;;37.45;24.90;;;-5.20;99.90;;;;;;7412724;19;20373;-83
2021/12/28 02:17:39;;;;;;;38.08;22.95;;;-5.20;99.90;;;;;;7412228;19;20422;-83
2021/12/28 02:20:13;;;;;;;40.13;25.10;;;-5.30;99.90;;;;;;7410837;19;20689;-83
2021/12/28 02:22:39;;;;;;;32.22;23.33;;;-5.30;99.90;;;;;;7413300;19;20343;-83
2021/12/28 02:25:05;;;;;;;32.85;21.58;;;-5.20;99.90;;;;;;7400396;19;20372;-82
2021/12/28 02:27:31;;;;;;;33.60;22.98;;;-5.30;99.90;;;;;;7418617;19;20332;-84
2021/12/28 02:29:57;;;;;;;29.48;19.10;;;-5.20;99.90;;;;;;7420474;19;21474;-82
2021/12/28 02:32:27;;;;;;;30.63;21.57;;;-5.30;99.90;;;;;;7420700;19;20357;-84
2021/12/28 02:34:53;;;;;;;37.67;24.95;;;-5.20;99.90;;;;;;7414736;19;20335;-83
2021/12/28 02:37:18;;;;;;;37.67;21.13;;;-5.30;99.90;;;;;;7419820;19;20313;-83
2021/12/28 02:39:45;;;;;;;34.30;22.73;;;-5.30;99.90;;;;;;7421593;19;20335;-84
2021/12/28 02:42:16;;;;;;;32.00;23.25;;;-5.40;99.90;;;;;;7420529;19;20344;-84
2021/12/28 02:44:42;;;;;;;38.15;23.10;;;-5.30;99.90;;;;;;7418930;19;20305;-81
2021/12/28 02:47:16;;;;;;;37.87;23.43;;;-5.40;99.90;;;;;;7415923;19;20344;-81
2021/12/28 02:49:41;;;;;;;33.75;22.23;;;-5.30;99.90;;;;;;7418709;19;20350;-80
2021/12/28 02:52:09;;;;;;;39.13;22.98;;;-5.30;99.90;;;;;;7418128;19;20345;-80
2021/12/28 02:54:38;;;;;;;32.25;23.25;;;-5.30;99.90;;;;;;7420765;19;20356;-81
2021/12/28 02:57:05;;;;;;;38.78;23.65;;;-5.30;99.90;;;;;;7420698;19;20317;-83
2021/12/28 02:59:31;;;;;;;38.67;23.17;;;-5.40;99.90;;;;;;7417055;19;20312;-83
2021/12/28 03:01:57;;;;;;;32.88;22.75;;;-5.50;99.90;;;;;;7419941;19;20333;-84
2021/12/28 03:04:24;;;;;;;31.13;20.38;;;-5.30;99.90;;;;;;7414529;19;20337;-83
2021/12/28 03:06:50;;;;;;;35.60;22.15;;;-5.20;99.90;;;;;;7424662;19;20368;-84
2021/12/28 03:09:18;;;;;;;31.63;24.17;;;-5.30;99.90;;;;;;7416973;19;20380;-84
2021/12/28 03:11:44;;;;;;;33.23;20.77;;;-5.30;99.90;;;;;;7413007;19;20349;-83
2021/12/28 03:14:25;;;;;;;37.07;23.83;;;-5.40;99.90;;;;;;7421295;19;20327;-83
2021/12/28 03:16:54;;;;;;;32.03;21.90;;;-5.40;99.90;;;;;;7422048;19;20345;-83
2021/12/28 03:19:20;;;;;;;38.83;23.48;;;-5.40;99.90;;;;;;7414077;19;20357;-83
2021/12/28 03:21:46;;;;;;;37.10;24.25;;;-5.40;99.90;;;;;;7422689;19;20337;-84
2021/12/28 03:24:13;;;;;;;35.03;22.40;;;-5.40;99.90;;;;;;7408550;19;20340;-83
2021/12/28 03:26:39;;;;;;;29.20;20.60;;;-5.30;99.90;;;;;;7421937;19;20320;-83
2021/12/28 03:29:05;;;;;;;29.00;21.03;;;-5.30;99.90;;;;;;7418757;19;20327;-81
2021/12/28 03:31:34;;;;;;;31.60;21.43;;;-5.30;99.90;;;;;;7423157;19;20349;-80
2021/12/28 03:34:00;;;;;;;31.05;21.83;;;-5.30;99.90;;;;;;7419752;19;20348;-81
2021/12/28 03:36:30;;;;;;;43.15;24.92;;;-5.20;99.90;;;;;;7421404;19;20345;-83
2021/12/28 03:39:02;;;;;;;35.47;23.70;;;-5.30;99.90;;;;;;7419269;19;20296;-84
2021/12/28 03:41:30;;;;;;;31.73;22.63;;;-5.30;99.90;;;;;;7423966;19;20320;-84
2021/12/28 03:43:56;;;;;;;37.25;23.52;;;-5.30;99.90;;;;;;7417920;19;20373;-84
2021/12/28 03:46:23;;;;;;;31.17;21.80;;;-5.30;99.90;;;;;;7401763;19;20365;-82
2021/12/28 03:48:49;;;;;;;39.42;25.00;;;-5.20;99.90;;;;;;7419821;19;20309;-84
2021/12/28 03:51:16;;;;;;;41.22;24.30;;;-5.40;99.90;;;;;;7420122;19;20341;-83
2021/12/28 03:53:43;;;;;;;31.33;22.00;;;-5.30;99.90;;;;;;7419052;19;20345;-83
2021/12/28 03:56:09;;;;;;;31.65;21.85;;;-5.30;99.90;;;;;;7418905;19;20324;-83
2021/12/28 03:58:36;;;;;;;30.30;21.10;;;-5.20;99.90;;;;;;7418797;19;20384;-81
2021/12/28 04:01:03;;;;;;;31.58;21.80;;;-5.10;99.90;;;;;;7412176;19;20400;-80
2021/12/28 04:03:40;;;;;;;36.58;24.45;;;-5.10;99.90;;;;;;7406865;19;20353;-80
2021/12/28 04:06:08;;;;;;;35.17;23.23;;;-5.10;99.90;;;;;;7413314;19;20331;-82
2021/12/28 04:08:36;;;;;;;34.78;24.10;;;-4.90;99.90;;;;;;7407453;19;20774;-80
2021/12/28 04:11:14;;;;;;;43.10;24.57;;;-5.00;99.90;;;;;;7412598;19;20348;-82
2021/12/28 04:13:42;;;;;;;36.92;24.50;;;-4.90;99.90;;;;;;7392446;19;20378;-80
2021/12/28 04:16:09;;;;;;;34.80;24.67;;;-4.90;99.90;;;;;;7418537;19;20333;-83
2021/12/28 04:18:38;;;;;;;40.88;24.73;;;-5.00;99.90;;;;;;7412209;19;20365;-82
2021/12/28 04:23:41;;;;;;;41.90;24.58;;;-4.90;99.90;;;;;;7414071;19;20371;-82
2021/12/28 04:26:09;;;;;;;37.53;24.50;;;-5.00;99.90;;;;;;7407400;19;20375;-81
2021/12/28 04:28:36;;;;;;;35.05;23.65;;;-4.90;99.90;;;;;;7390963;19;20348;-81
2021/12/28 04:31:02;;;;;;;39.17;23.25;;;-4.80;99.90;;;;;;7419486;19;20436;-84
2021/12/28 04:33:31;;;;;;;44.25;26.25;;;-4.80;99.90;;;;;;7394277;19;20774;-83
2021/12/28 04:35:58;;;;;;;34.57;25.03;;;-4.70;99.90;;;;;;7395081;19;20286;-84
2021/12/28 04:38:24;;;;;;;36.53;25.17;;;-4.70;99.90;;;;;;7415564;19;20328;-81
2021/12/28 04:40:51;;;;;;;35.25;22.42;;;-4.70;99.90;;;;;;7421602;19;20321;-82
2021/12/28 04:43:17;;;;;;;32.63;23.40;;;-4.70;99.90;;;;;;7425217;19;20372;-84
2021/12/28 04:45:46;;;;;;;34.67;22.92;;;-4.60;99.90;;;;;;7427827;19;20361;-80
2021/12/28 04:48:12;;;;;;;44.00;24.30;;;-4.60;99.90;;;;;;7403412;19;20340;-84
2021/12/28 04:50:40;;;;;;;41.65;24.00;;;-4.60;99.90;;;;;;7407523;19;20363;-83
2021/12/28 04:53:14;;;;;;;29.42;22.67;;;-4.60;99.90;;;;;;7419117;19;20380;-82
2021/12/28 04:55:59;;;;;;;35.28;23.88;;;-4.50;99.90;;;;;;7294349;19;2004200;-82
2021/12/28 04:58:25;;;;;;;31.17;22.52;;;-4.50;99.90;;;;;;7420950;19;20364;-84
2021/12/28 05:00:51;;;;;;;40.58;24.13;;;-4.40;99.90;;;;;;7426057;19;20336;-84
2021/12/28 05:03:18;;;;;;;38.65;25.10;;;-4.40;99.90;;;;;;7381555;19;20320;-83
2021/12/28 05:05:50;;;;;;;35.22;24.33;;;-4.50;99.90;;;;;;7411128;19;20345;-82
2021/12/28 05:08:16;;;;;;;35.47;24.33;;;-4.50;99.90;;;;;;7398750;19;20345;-81
2021/12/28 05:10:42;;;;;;;33.17;23.52;;;-4.20;99.90;;;;;;7397762;19;20357;-83
2021/12/28 05:13:09;;;;;;;41.28;24.27;;;-4.40;99.90;;;;;;7404425;19;20598;-80
2021/12/28 05:15:37;;;;;;;40.65;24.95;;;-4.40;99.90;;;;;;7404484;19;20336;-82
2021/12/28 05:18:03;;;;;;;31.58;23.50;;;-4.30;99.90;;;;;;7384963;19;20308;-82
2021/12/28 05:20:29;;;;;;;42.97;24.97;;;-4.30;99.90;;;;;;7400728;19;20344;-81
2021/12/28 05:22:56;;;;;;;38.90;25.20;;;-4.30;99.90;;;;;;7388245;19;20363;-82
2021/12/28 05:25:22;;;;;;;38.17;24.35;;;-4.30;99.90;;;;;;7389093;19;20893;-82
2021/12/28 05:27:48;;;;;;;38.60;25.02;;;-4.20;99.90;;;;;;7391378;19;20333;-83
2021/12/28 05:30:14;;;;;;;36.90;24.57;;;-4.20;99.90;;;;;;7420441;19;20323;-82
2021/12/28 05:32:41;;;;;;;36.08;24.70;;;-4.20;99.90;;;;;;7423138;19;20312;-83
2021/12/28 05:35:08;;;;;;;37.30;24.95;;;-4.30;99.90;;;;;;7390735;19;20356;-83
2021/12/28 05:37:36;;;;;;;38.60;24.38;;;-4.30;99.90;;;;;;7398545;19;20312;-83
2021/12/28 05:40:08;;;;;;;33.42;23.60;;;-4.20;99.90;;;;;;7390600;19;20384;-82
2021/12/28 05:42:36;;;;;;;45.83;25.52;;;-4.20;99.90;;;;;;7308111;19;2004532;-82
2021/12/28 05:45:05;;;;;;;35.15;23.52;;;-4.10;99.90;;;;;;7369252;19;20320;-83
2021/12/28 05:47:32;;;;;;;40.47;24.08;;;-4.10;99.90;;;;;;7423456;19;20364;-84
2021/12/28 05:50:08;;;;;;;38.85;23.95;;;-4.10;99.90;;;;;;7393380;19;20651;-83
2021/12/28 05:52:44;;;;;;;41.38;24.42;;;-4.10;99.90;;;;;;7399265;19;20301;-83
2021/12/28 05:55:12;;;;;;;42.45;23.95;;;-4.00;99.90;;;;;;7387039;19;20400;-83
2021/12/28 05:57:40;;;;;;;32.72;21.98;;;-4.20;99.90;;;;;;7376609;19;20360;-82
2021/12/28 06:12:06;;;;;;;36.72;21.40;;;-3.90;99.90;;;;;;7425680;19;20332;-80
2021/12/28 06:14:34;;;;;;;33.50;22.58;;;-3.90;99.90;;;;;;7420113;19;20353;-81
2021/12/28 06:17:01;;;;;;;37.33;24.42;;;-3.80;99.90;;;;;;7417760;19;20309;-81
2021/12/28 06:19:30;;;;;;;31.58;22.85;;;-3.80;99.90;;;;;;7419678;19;20308;-81
2021/12/28 06:24:31;;;;;;;33.97;21.50;;;-3.80;99.90;;;;;;7423240;19;20321;-81
2021/12/28 06:27:25;;;;;;;36.00;23.27;;;-3.80;99.90;;;;;;7320095;19;2004405;-82
2021/12/28 06:29:58;;;;;;;32.25;21.75;;;-3.80;99.90;;;;;;7382150;19;20836;-81
2021/12/28 06:33:01;;;;;;;37.17;22.60;;;-3.80;99.90;;;;;;7422801;19;20323;-81
2021/12/28 06:35:33;;;;;;;37.40;23.30;;;-3.70;99.90;;;;;;7397692;19;20325;-80
2021/12/28 06:37:59;;;;;;;36.53;22.57;;;-3.80;99.90;;;;;;7423191;19;20328;-80
2021/12/28 06:40:25;;;;;;;33.38;22.35;;;-3.50;99.90;;;;;;7425034;19;20344;-80
2021/12/28 07:22:48;;;;;;;39.30;24.60;;;-3.50;99.90;;;;;;7430998;19;20368;-81
2021/12/28 07:25:14;;;;;;;47.75;24.95;;;-3.30;99.90;;;;;;7370399;19;20329;-80
2021/12/28 07:28:04;;;;;;;38.80;26.17;;;-3.50;99.90;;;;;;7419795;19;20320;-81
2021/12/28 07:30:33;;;;;;;35.22;24.05;;;-3.50;99.90;;;;;;7419920;19;20316;-80
2021/12/28 07:33:26;;;;;;;47.43;26.67;;;-3.50;99.90;;;;;;7426742;19;20440;-80
2021/12/28 08:03:13;;;;;;;36.30;24.67;;;-3.20;99.90;;;;;;7404575;19;20343;-81
2021/12/28 08:05:41;;;;;;;39.17;25.25;;;-3.20;99.90;;;;;;7367409;19;20317;-79
2021/12/28 08:08:07;;;;;;;40.00;25.95;;;-3.20;99.90;;;;;;7388820;19;20935;-79
2021/12/28 08:10:33;;;;;;;36.20;25.05;;;-3.20;99.90;;;;;;7385918;19;20355;-79
2021/12/28 08:12:58;;;;;;;41.20;25.43;;;-3.10;99.90;;;;;;7389347;19;20337;-79
2021/12/28 08:15:25;;;;;;;41.42;24.90;;;-3.10;99.90;;;;;;7392080;19;20332;-80
2021/12/28 08:17:51;;;;;;;37.50;24.77;;;-3.00;99.90;;;;;;7394561;19;20853;-78
2021/12/28 08:20:19;;;;;;;34.90;24.40;;;-3.00;99.90;;;;;;7396192;19;20316;-79
2021/12/28 08:22:46;;;;;;;40.05;24.52;;;-3.00;99.90;;;;;;7397982;19;20369;-80
2021/12/28 08:25:14;;;;;;;36.40;23.70;;;-2.90;99.90;;;;;;7393524;19;20347;-81
2021/12/28 08:27:42;;;;;;;36.17;22.90;;;-3.00;99.90;;;;;;7382645;19;20336;-79
2021/12/28 08:30:08;;;;;;;38.90;24.70;;;-2.90;99.90;;;;;;7399759;19;20317;-79
2021/12/28 08:32:47;;;;;;;39.92;24.88;;;-2.90;99.90;;;;;;7380709;19;20386;-79
2021/12/28 08:35:41;;;;;;;43.75;26.75;;;-2.90;99.90;;;;;;7376419;19;20329;-80
2021/12/28 08:38:13;;;;;;;37.75;24.75;;;-2.70;99.90;;;;;;7297324;19;2004337;-80
2021/12/28 08:40:41;;;;;;;37.88;24.73;;;-2.70;99.90;;;;;;7404643;19;20316;-79
2021/12/28 08:43:56;;;;;;;38.08;23.33;;;-2.70;99.90;;;;;;7360648;19;20340;-79
2021/12/28 08:50:25;;;;;;;38.58;26.30;;;-2.30;99.90;;;;;;7405588;19;20894;-79
2021/12/28 08:52:58;;;;;;;35.75;23.15;;;-2.00;99.90;;;;;;7403401;19;20336;-80
2021/12/28 08:55:28;;;;;;;32.55;23.13;;;-1.60;99.90;;;;;;7239004;19;2019842;-81
2021/12/28 08:58:14;;;;;;;33.97;22.58;;;-1.40;99.90;;;;;;7280902;19;20388;-81
2021/12/28 09:18:44;;;;;;;50.75;30.17;;;-0.70;99.90;;;;;;7344475;19;20399;-84
2021/12/28 09:21:13;;;;;;;28.90;19.35;;;-0.50;99.90;;;;;;7388415;19;20305;-83
2021/12/28 09:23:39;;;;;;;28.90;20.77;;;-0.60;99.90;;;;;;7408182;19;20312;-83
2021/12/28 09:26:05;;;;;;;34.13;19.97;;;-0.60;99.90;;;;;;7368998;19;20353;-84
2021/12/28 09:28:31;;;;;;;25.83;18.40;;;-0.60;99.90;;;;;;7392585;19;20324;-79
2021/12/28 09:30:57;;;;;;;29.53;18.63;;;-0.80;99.90;;;;;;7404528;19;20827;-81
2021/12/28 09:33:27;;;;;;;25.15;17.58;;;-0.80;99.90;;;;;;7395329;19;20309;-82
2021/12/28 09:36:14;;;;;;;29.48;21.13;;;-0.60;99.90;;;;;;7349771;19;20341;-83
2021/12/28 09:38:55;;;;;;;40.42;24.23;;;-0.70;99.90;;;;;;7411081;19;20297;-82
2021/12/28 09:41:21;;;;;;;34.35;23.20;;;-0.60;99.90;;;;;;7407280;19;20336;-82
2021/12/28 09:43:47;;;;;;;43.47;26.98;;;-0.60;99.90;;;;;;7400173;19;20304;-83
2021/12/28 09:46:12;;;;;;;33.77;23.73;;;-0.50;99.90;;;;;;7305739;19;20612;-81
2021/12/28 09:52:16;;;;;;;34.47;22.98;;;-0.50;99.90;;;;;;7298359;19;20323;-80
2021/12/28 09:54:42;;;;;;;34.13;22.33;;;-0.40;99.90;;;;;;7399117;19;20293;-82
2021/12/28 09:57:18;;;;;;;35.55;24.05;;;-0.30;99.90;;;;;;7407792;19;20301;-82
2021/12/28 09:59:48;;;;;;;34.88;23.80;;;-0.20;99.90;;;;;;7328837;19;20332;-82
2021/12/28 10:02:42;;;;;;;35.27;22.27;;;-0.20;99.90;;;;;;7390554;19;20338;-82
2021/12/28 10:05:11;;;;;;;34.30;21.40;;;-0.20;99.90;;;;;;7344978;19;20328;-82
2021/12/28 10:07:44;;;;;;;32.03;21.77;;;-0.20;99.90;;;;;;7406964;19;20293;-80
2021/12/28 10:10:30;;;;;;;31.30;21.98;;;-0.10;99.90;;;;;;7405465;19;20324;-82
2021/12/28 10:13:06;;;;;;;35.33;23.47;;;0.00;99.90;;;;;;7402324;19;20328;-80
2021/12/28 10:15:37;;;;;;;30.60;22.05;;;0.10;99.90;;;;;;7405957;19;20297;-80
2021/12/28 10:18:08;;;;;;;30.98;21.58;;;0.20;99.90;;;;;;7404429;19;20304;-81
2021/12/28 10:20:43;;;;;;;44.43;30.87;;;0.20;99.90;;;;;;7379724;19;20329;-80
2021/12/28 10:23:19;;;;;;;34.97;24.67;;;0.30;99.90;;;;;;7406385;19;20317;-82
2021/12/28 10:25:50;;;;;;;32.17;23.83;;;0.30;99.90;;;;;;7390418;19;20312;-82
2021/12/28 10:28:36;;;;;;;27.65;20.30;;;0.50;99.90;;;;;;7415099;19;20281;-80
2021/12/28 10:34:03;;;;;;;33.40;23.05;;;0.50;99.90;;;;;;7425985;19;20305;-88
2021/12/28 11:03:57;;;;;;;23.83;17.05;;;1.70;99.90;;;;;;7425752;19;20327;-87
2021/12/28 11:06:33;;;;;;;19.55;15.18;;;1.80;99.90;;;;;;7411078;19;20363;-85
2021/12/28 11:09:09;;;;;;;21.70;15.77;;;2.00;99.90;;;;;;7422712;19;20393;-87
2021/12/28 11:11:35;;;;;;;25.02;17.17;;;2.10;99.90;;;;;;7420195;19;20325;-87
2021/12/28 11:14:05;;;;;;;25.20;14.48;;;2.10;99.90;;;;;;7419323;19;20301;-84
2021/12/28 11:16:32;;;;;;;21.23;17.02;;;2.20;99.90;;;;;;7418489;19;20324;-85
2021/12/28 11:19:03;;;;;;;27.33;19.07;;;2.30;99.90;;;;;;7409325;19;20339;-83
2021/12/28 11:21:34;;;;;;;23.08;17.60;;;2.20;99.90;;;;;;7395976;19;20323;-84
2021/12/28 11:24:05;;;;;;;28.88;18.20;;;2.20;99.90;;;;;;7409775;19;20305;-83
2021/12/28 11:26:42;;;;;;;27.37;17.50;;;2.50;99.90;;;;;;7360660;19;20906;-83
2021/12/28 11:29:21;;;;;;;24.20;17.67;;;2.90;99.90;;;;;;7407671;19;20843;-84
2021/12/28 11:31:57;;;;;;;21.85;15.20;;;3.10;99.90;;;;;;7415866;19;20308;-87
2021/12/28 11:34:24;;;;;;;20.30;15.13;;;3.40;99.90;;;;;;7416483;19;20364;-90
2021/12/28 11:37:09;;;;;;;18.60;13.57;;;3.50;99.90;;;;;;7420415;19;20400;-90
2021/12/28 11:39:37;;;;;;;23.52;15.80;;;3.80;99.90;;;;;;7416030;19;20359;-90
2021/12/28 11:42:03;;;;;;;24.98;15.88;;;4.20;99.90;;;;;;7407300;19;20401;-85
2021/12/28 11:44:32;;;;;;;20.00;15.00;;;4.40;99.90;;;;;;7410522;19;20324;-84
2021/12/28 11:46:59;;;;;;;18.58;12.80;;;4.60;99.90;;;;;;7404899;19;20270;-86
2021/12/28 11:49:28;;;;;;;18.70;14.70;;;4.80;99.90;;;;;;7407828;19;20373;-82
2021/12/28 11:51:59;;;;;;;22.05;14.40;;;4.80;99.90;;;;;;7418533;19;20420;-89
2021/12/28 11:54:26;;;;;;;19.05;13.75;;;5.10;99.90;;;;;;7423995;19;20323;-89
2021/12/28 11:57:00;;;;;;;18.95;13.65;;;5.10;99.90;;;;;;7422977;19;20365;-90
2021/12/28 11:59:28;;;;;;;17.23;11.47;;;5.30;99.90;;;;;;7419407;19;20326;-88
2021/12/28 12:02:04;;;;;;;19.27;12.85;;;5.40;99.90;;;;;;7426870;19;20528;-92
2021/12/28 12:04:33;;;;;;;42.13;17.45;;;5.60;99.90;;;;;;7423456;19;20329;-90
2021/12/28 12:07:12;;;;;;;21.85;13.85;;;5.70;99.90;;;;;;7426944;19;20308;-89
2021/12/28 12:09:50;;;;;;;20.63;12.05;;;5.50;99.90;;;;;;7306565;19;2004330;-90
2021/12/28 12:12:17;;;;;;;17.77;10.88;;;5.50;99.90;;;;;;7322484;19;2004493;-86
2021/12/28 12:14:52;;;;;;;13.70;10.60;;;5.70;99.90;;;;;;7425536;19;20379;-88
2021/12/28 12:17:43;;;;;;;12.07;9.05;;;5.60;99.90;;;;;;7423796;19;20307;-84
2021/12/28 12:20:16;;;;;;;13.43;9.35;;;5.40;99.90;;;;;;7322251;19;2004008;-88
2021/12/28 12:22:43;;;;;;;10.00;8.43;;;5.30;99.90;;;;;;7424107;19;20289;-90
2021/12/28 12:25:15;;;;;;;12.17;8.07;;;5.20;99.90;;;;;;7424914;19;20340;-92
2021/12/28 12:27:52;;;;;;;9.60;7.30;;;5.30;99.90;;;;;;7424612;19;20316;-88
2021/12/28 12:30:24;;;;;;;11.20;8.05;;;5.30;99.90;;;;;;7423968;19;20325;-90
2021/12/28 12:32:56;;;;;;;7.10;6.38;;;5.20;99.90;;;;;;7426075;19;20322;-92
2021/12/28 12:35:34;;;;;;;9.95;7.30;;;5.40;99.90;;;;;;7320360;19;2006765;-85
2021/12/28 12:38:28;;;;;;;11.82;7.03;;;5.40;99.90;;;;;;7323738;19;2004441;-90
2021/12/28 12:41:13;;;;;;;6.45;5.22;;;5.40;99.90;;;;;;7319745;19;2004159;-91
2021/12/28 12:43:41;;;;;;;7.15;5.55;;;5.40;99.90;;;;;;7423424;19;20352;-85
2021/12/28 12:46:22;;;;;;;5.70;5.20;;;5.50;99.90;;;;;;7422643;19;20348;-92
2021/12/28 12:48:53;;;;;;;6.43;4.53;;;5.30;99.90;;;;;;7424289;19;20356;-84
2021/12/28 12:51:19;;;;;;;7.60;4.85;;;5.30;99.90;;;;;;7422100;19;20350;-90
2021/12/28 12:53:54;;;;;;;4.13;3.72;;;5.30;99.90;;;;;;7421413;19;20312;-89
2021/12/28 12:56:21;;;;;;;5.90;4.32;;;5.30;99.90;;;;;;7321800;19;2008664;-89
2021/12/28 12:58:47;;;;;;;6.55;5.72;;;5.10;99.90;;;;;;7423380;19;21200;-88
2021/12/28 13:01:39;;;;;;;4.70;4.30;;;5.00;99.90;;;;;;7420164;19;20351;-83
2021/12/28 13:04:24;;;;;;;6.72;5.28;;;5.10;99.90;;;;;;7420632;19;20340;-86
2021/12/28 13:07:12;;;;;;;7.50;5.88;;;5.00;99.90;;;;;;7318350;19;2004338;-86
2021/12/28 13:09:44;;;;;;;7.57;6.27;;;4.90;99.90;;;;;;7315043;19;2007637;-88
2021/12/28 13:12:16;;;;;;;7.80;6.07;;;4.80;99.90;;;;;;7413662;19;20317;-83
2021/12/28 13:14:41;;;;;;;4.63;4.22;;;4.70;99.90;;;;;;7408088;19;20301;-82
2021/12/28 13:17:14;;;;;;;6.47;4.77;;;4.60;99.90;;;;;;7414305;19;20383;-86
2021/12/28 13:20:00;;;;;;;6.15;4.35;;;4.60;99.90;;;;;;7409993;19;20651;-82
2021/12/28 13:22:30;;;;;;;4.55;4.10;;;4.60;99.90;;;;;;7410018;19;20429;-84
2021/12/28 13:24:57;;;;;;;4.45;4.03;;;4.50;99.90;;;;;;7412404;19;20386;-81
2021/12/28 13:27:24;;;;;;;5.43;4.07;;;4.60;99.90;;;;;;7411205;19;20324;-81
2021/12/28 13:29:49;;;;;;;4.95;4.18;;;4.50;99.90;;;;;;7397984;19;20317;-79
2021/12/28 13:32:23;;;;;;;5.40;4.28;;;4.40;99.90;;;;;;7399718;19;20362;-82
2021/12/28 13:35:01;;;;;;;5.20;4.27;;;4.40;99.90;;;;;;7405369;19;20333;-84
2021/12/28 13:37:50;;;;;;;6.32;4.35;;;4.30;99.90;;;;;;7401425;19;20331;-83
2021/12/28 13:40:35;;;;;;;4.35;3.95;;;4.10;99.90;;;;;;7394307;19;20340;-81
2021/12/28 13:43:03;;;;;;;6.53;4.43;;;4.10;99.90;;;;;;7401596;19;20329;-80
2021/12/28 13:45:29;;;;;;;4.85;4.35;;;4.00;99.90;;;;;;7394833;19;20379;-83
2021/12/28 13:47:55;;;;;;;5.68;4.32;;;4.00;99.90;;;;;;7393728;19;20867;-81
2021/12/28 13:50:20;;;;;;;5.45;4.32;;;4.00;99.90;;;;;;7393414;19;20372;-83
2021/12/28 13:52:48;;;;;;;4.73;4.23;;;4.00;99.90;;;;;;7398294;19;20324;-83
2021/12/28 13:55:16;;;;;;;5.03;3.80;;;4.00;99.90;;;;;;7384394;19;20308;-83
2021/12/28 13:57:42;;;;;;;5.47;3.85;;;4.00;99.90;;;;;;7406752;19;20392;-83
2021/12/28 14:00:10;;;;;;;4.47;3.90;;;3.90;99.90;;;;;;7392533;19;20397;-82
2021/12/28 14:02:39;;;;;;;5.63;4.32;;;3.90;99.90;;;;;;7391550;19;20332;-80
2021/12/28 14:05:05;;;;;;;6.88;3.60;;;3.90;99.90;;;;;;7385778;19;20309;-80
2021/12/28 14:07:31;;;;;;;5.45;3.97;;;3.90;99.90;;;;;;7387589;19;20336;-80
2021/12/28 14:09:56;;;;;;;5.23;4.27;;;3.90;99.90;;;;;;7385765;19;20320;-81
2021/12/28 14:12:22;;;;;;;5.13;3.90;;;3.80;99.90;;;;;;7385659;19;20328;-82
2021/12/28 14:14:48;;;;;;;4.97;4.47;;;3.80;99.90;;;;;;7386774;19;20834;-80
2021/12/28 14:17:14;;;;;;;4.97;4.13;;;3.90;99.90;;;;;;7390312;19;20640;-80
2021/12/28 14:19:44;;;;;;;4.72;4.15;;;3.90;99.90;;;;;;7389672;19;20906;-80
2021/12/28 14:22:15;;;;;;;4.22;3.80;;;3.80;99.90;;;;;;7388864;19;20332;-80
2021/12/28 14:24:42;;;;;;;4.15;3.75;;;3.70;99.90;;;;;;7390869;19;20366;-81
2021/12/28 14:27:08;;;;;;;4.28;3.88;;;3.70;99.90;;;;;;7389823;19;20327;-82
2021/12/28 14:29:33;;;;;;;6.83;4.50;;;3.70;99.90;;;;;;7393324;19;20344;-81
2021/12/28 14:32:01;;;;;;;6.40;4.67;;;3.70;99.90;;;;;;7397014;19;20949;-82
2021/12/28 14:34:42;;;;;;;6.13;4.57;;;3.60;99.90;;;;;;7397793;19;20320;-80
2021/12/28 14:37:11;;;;;;;5.88;3.78;;;3.50;99.90;;;;;;7392944;19;20345;-80
2021/12/28 14:39:52;;;;;;;5.95;3.53;;;3.50;99.90;;;;;;7395738;19;20345;-80
2021/12/28 14:42:21;;;;;;;5.13;4.47;;;3.50;99.90;;;;;;7391655;19;20360;-82
2021/12/28 14:44:48;;;;;;;5.78;4.57;;;3.50;99.90;;;;;;7395083;19;20340;-79
2021/12/28 14:47:20;;;;;;;4.30;3.88;;;3.40;99.90;;;;;;7394294;19;20308;-83
2021/12/28 14:49:47;;;;;;;4.38;3.97;;;3.40;99.90;;;;;;7298718;19;2009348;-80
2021/12/28 14:52:17;;;;;;;3.72;3.42;;;3.40;99.90;;;;;;7397378;19;20320;-84
2021/12/28 14:55:02;;;;;;;4.93;3.80;;;3.40;99.90;;;;;;7395177;19;20368;-84
2021/12/28 14:57:30;;;;;;;4.20;3.75;;;3.30;99.90;;;;;;7405719;19;20337;-82
2021/12/28 14:59:59;;;;;;;4.93;3.88;;;3.40;99.90;;;;;;7402587;19;20332;-85
2021/12/28 15:02:24;;;;;;;3.85;3.45;;;3.40;99.90;;;;;;7406937;19;20308;-81
2021/12/28 15:04:55;;;;;;;168.47;114.30;;;3.40;99.90;;;;;;7405121;19;20359;-84
2021/12/28 15:07:26;;;;;;;16.67;13.15;;;3.30;99.90;;;;;;7405984;19;20686;-83
2021/12/28 15:09:52;;;;;;;5.37;4.83;;;3.40;99.90;;;;;;7406530;19;20345;-86